Pine View, New Mexico
Current Conditions -  °F | °C
As of 1:55 AM on Sunday 23 Nov 2014 (Local Time) from KSKX Reporting Station
Overcast Overcast  
Wind Chill: -1°   Ceiling: 4600
Heat Index:   Visibility: 10mi
Dew Point: -4°   Wind: 5mph
Humidity: 70%   Direction: 130°SE
Pressure: 29.79"   Gusts: NA
Location:  36.1892°N, 105.688°W
Report Text: KSKX 230855Z AUTO 13004KT 10SM OVC046 01/M04 A2979 RMK AO1 57017
Loading
Personal Weather Stations






























Interactive Weather Map New forecast layout! Learn more

10-Day Weather Forecast

Advertisements
Track Severe Weather on mobile